LTAD/ANK METAR and TAF weather

Enter ICAO airport designator
Station Type Date Time Source
LTAD METAR 2020/09/30 13:50 UTC NOAA

LTAD 301350Z 32007KT 280V360 9999 SCT040 22/05 Q1010 NOSIG RMK RWY29 29009KT 250V320


Station Type Date Time Source
LTAD Decoded METAR 2020/09/30 13:50 UTC NOAA

Ankara / Etimesgut, Turkey (LTAD) 39-57N 032-41E 806M
Sep 30, 2020 - 09:50 AM EDT / 2020.09.30 1350 UTC
Wind: from the NW (320 degrees) at 8 MPH (7 KT) (direction variable):0
Visibility: greater than 7 mile(s):0
Sky conditions: partly cloudy
Temperature: 71 F (22 C)
Dew Point: 41 F (5 C)
Relative Humidity: 32%
Pressure (altimeter): 29.83 in. Hg (1010 hPa)
ob: LTAD 301350Z 32007KT 280V360 9999 SCT040 22/05 Q1010 NOSIG RMK RWY29 29009KT 250V320
cycle: 14

Station Type Date Time Source
LTAD TAF UTC NOAA

Error!

Example: see airport list